Time,TemperatureF,DewpointF,PressureIn,WindDirection,WindDirectionDegrees,WindSpeedMPH,WindSpeedGustMPH,Humidity,HourlyPrecipIn,Conditions,Clouds,dailyrainin,SoftwareType,DateUTC
2013-04-27 00:03:00,54.3,40.0,30.30,SSE,155,2.0,6.0,60,0.00,,,0.00,weatherlink.com 1.10,2013-04-27 04:03:00,
2013-04-27 00:18:00,54.1,41.0,30.29,SSE,163,1.0,6.0,61,0.00,,,0.00,weatherlink.com 1.10,2013-04-27 04:18:00,
2013-04-27 00:33:00,53.7,41.0,30.30,SSE,156,2.0,7.0,62,0.00,,,0.00,weatherlink.com 1.10,2013-04-27 04:33:00,
2013-04-27 00:48:00,53.2,40.0,30.30,SSE,160,4.0,6.0,62,0.00,,,0.00,weatherlink.com 1.10,2013-04-27 04:48:00,
2013-04-27 01:03:00,52.9,40.0,30.30,SSW,205,1.0,5.0,63,0.00,,,0.00,weatherlink.com 1.10,2013-04-27 05:03:00,
2013-04-27 01:18:00,52.5,41.0,30.30,WSW,246,0.0,5.0,64,0.00,,,0.00,weatherlink.com 1.10,2013-04-27 05:18:00,
2013-04-27 01:33:00,52.2,41.0,30.30,SSW,205,2.0,4.0,65,0.00,,,0.00,weatherlink.com 1.10,2013-04-27 05:33:00,
2013-04-27 01:48:00,52.2,41.0,30.30,SE,139,2.0,5.0,65,0.00,,,0.00,weatherlink.com 1.10,2013-04-27 05:48:00,
2013-04-27 02:03:00,52.2,41.0,30.30,SW,222,0.0,6.0,66,0.00,,,0.00,weatherlink.com 1.10,2013-04-27 06:03:00,
2013-04-27 02:18:00,51.8,41.0,30.30,South,170,1.0,4.0,66,0.00,,,0.00,weatherlink.com 1.10,2013-04-27 06:18:00,
2013-04-27 02:33:00,51.4,41.0,30.30,SSE,148,0.0,5.0,67,0.00,,,0.00,weatherlink.com 1.10,2013-04-27 06:33:00,
2013-04-27 02:48:00,51.1,41.0,30.30,West,259,0.0,2.0,68,0.00,,,0.00,weatherlink.com 1.10,2013-04-27 06:48:00,
2013-04-27 03:03:00,51.2,41.0,30.30,SW,228,0.0,4.0,68,0.00,,,0.00,weatherlink.com 1.10,2013-04-27 07:03:00,
2013-04-27 03:18:00,50.6,41.0,30.30,SW,233,0.0,5.0,69,0.00,,,0.00,weatherlink.com 1.10,2013-04-27 07:18:00,
2013-04-27 03:34:00,49.7,40.0,30.29,South,177,0.0,1.0,70,0.00,,,0.00,weatherlink.com 1.10,2013-04-27 07:34:00,
2013-04-27 03:49:00,48.7,40.0,30.29,South,177,0.0,0.0,72,0.00,,,0.00,weatherlink.com 1.10,2013-04-27 07:49:00,
2013-04-27 04:04:00,47.9,40.0,30.30,SSW,208,0.0,0.0,74,0.00,,,0.00,weatherlink.com 1.10,2013-04-27 08:04:00,
2013-04-27 04:19:00,46.9,40.0,30.30,SSW,208,0.0,0.0,76,0.00,,,0.00,weatherlink.com 1.10,2013-04-27 08:19:00,
2013-04-27 04:34:00,46.2,39.0,30.29,SSW,208,0.0,0.0,77,0.00,,,0.00,weatherlink.com 1.10,2013-04-27 08:34:00,
2013-04-27 04:49:00,45.2,39.0,30.29,SSW,208,0.0,0.0,78,0.00,,,0.00,weatherlink.com 1.10,2013-04-27 08:49:00,
2013-04-27 05:04:00,44.8,39.0,30.29,SSW,208,0.0,0.0,79,0.00,,,0.00,weatherlink.com 1.10,2013-04-27 09:04:00,
2013-04-27 05:19:00,44.0,38.0,30.29,SSW,208,0.0,0.0,80,0.00,,,0.00,weatherlink.com 1.10,2013-04-27 09:19:00,
2013-04-27 05:34:00,43.7,38.0,30.29,SSW,208,0.0,0.0,80,0.00,,,0.00,weatherlink.com 1.10,2013-04-27 09:34:00,
2013-04-27 05:49:00,43.4,38.0,30.29,SSW,208,0.0,0.0,81,0.00,,,0.00,weatherlink.com 1.10,2013-04-27 09:49:00,
2013-04-27 06:04:00,42.7,37.0,30.29,SSW,208,0.0,0.0,81,0.00,,,0.00,weatherlink.com 1.10,2013-04-27 10:04:00,
2013-04-27 06:19:00,42.2,37.0,30.29,SSW,208,0.0,0.0,81,0.00,,,0.00,weatherlink.com 1.10,2013-04-27 10:19:00,
2013-04-27 06:34:00,41.7,36.0,30.29,SSW,208,0.0,0.0,81,0.00,,,0.00,weatherlink.com 1.10,2013-04-27 10:34:00,
2013-04-27 06:49:00,41.5,36.0,30.29,SSW,208,0.0,0.0,81,0.00,,,0.00,weatherlink.com 1.10,2013-04-27 10:49:00,
2013-04-27 07:04:00,41.5,36.0,30.29,SSW,208,0.0,0.0,81,0.00,,,0.00,weatherlink.com 1.10,2013-04-27 11:04:00,
2013-04-27 07:19:00,41.5,36.0,30.29,SSW,208,0.0,0.0,81,0.00,,,0.00,weatherlink.com 1.10,2013-04-27 11:19:00,
2013-04-27 07:34:00,42.3,37.0,30.30,SSW,208,0.0,0.0,81,0.00,,,0.00,weatherlink.com 1.10,2013-04-27 11:34:00,
2013-04-27 07:49:00,42.5,37.0,30.30,SSW,208,0.0,0.0,81,0.00,,,0.00,weatherlink.com 1.10,2013-04-27 11:49:00,
2013-04-27 08:04:00,44.2,39.0,30.29,SSW,208,0.0,0.0,81,0.00,,,0.00,weatherlink.com 1.10,2013-04-27 12:04:00,
2013-04-27 08:19:00,47.3,41.0,30.30,South,173,0.0,1.0,79,0.00,,,0.00,weatherlink.com 1.10,2013-04-27 12:19:00,
2013-04-27 08:34:00,50.8,42.0,30.30,SW,233,1.0,4.0,72,0.00,,,0.00,weatherlink.com 1.10,2013-04-27 12:34:00,
2013-04-27 08:49:00,53.0,43.0,30.30,South,172,3.0,4.0,68,0.00,,,0.00,weatherlink.com 1.10,2013-04-27 12:49:00,
2013-04-27 09:04:00,54.8,43.0,30.29,SW,228,2.0,5.0,65,0.00,,,0.00,weatherlink.com 1.10,2013-04-27 13:04:00,
2013-04-27 09:19:00,55.6,44.0,30.29,South,170,2.0,4.0,65,0.00,,,0.00,weatherlink.com 1.10,2013-04-27 13:19:00,
2013-04-27 09:34:00,56.2,44.0,30.28,WSW,243,1.0,5.0,65,0.00,,,0.00,weatherlink.com 1.10,2013-04-27 13:34:00,
2013-04-27 09:50:00,58.5,45.0,30.28,South,172,1.0,3.0,62,0.00,,,0.00,weatherlink.com 1.10,2013-04-27 13:50:00,
2013-04-27 10:05:00,59.4,45.0,30.27,South,176,1.0,5.0,60,0.00,,,0.00,weatherlink.com 1.10,2013-04-27 14:05:00,
2013-04-27 10:20:00,60.0,45.0,30.27,West,270,2.0,5.0,59,0.00,,,0.00,weatherlink.com 1.10,2013-04-27 14:20:00,
2013-04-27 10:35:00,60.9,46.0,30.27,SE,132,5.0,6.0,59,0.00,,,0.00,weatherlink.com 1.10,2013-04-27 14:35:00,
2013-04-27 10:50:00,61.6,46.0,30.27,South,172,2.0,6.0,58,0.00,,,0.00,weatherlink.com 1.10,2013-04-27 14:50:00,
2013-04-27 11:05:00,62.5,46.0,30.26,SSW,204,2.0,6.0,55,0.00,,,0.00,weatherlink.com 1.10,2013-04-27 15:05:00,
2013-04-27 11:20:00,63.8,47.0,30.26,East,101,0.0,6.0,54,0.00,,,0.00,weatherlink.com 1.10,2013-04-27 15:20:00,
2013-04-27 11:35:00,63.6,46.0,30.25,South,170,3.0,9.0,53,0.00,,,0.00,weatherlink.com 1.10,2013-04-27 15:35:00,
2013-04-27 11:50:00,64.7,46.0,30.25,WNW,283,1.0,6.0,51,0.00,,,0.00,weatherlink.com 1.10,2013-04-27 15:50:00,
2013-04-27 12:05:00,65.2,45.0,30.24,SSW,207,1.0,9.0,49,0.00,,,0.00,weatherlink.com 1.10,2013-04-27 16:05:00,
2013-04-27 12:20:00,65.8,45.0,30.24,SE,145,0.0,6.0,48,0.00,,,0.00,weatherlink.com 1.10,2013-04-27 16:20:00,
2013-04-27 12:35:00,65.7,45.0,30.24,SSW,202,1.0,10.0,48,0.00,,,0.00,weatherlink.com 1.10,2013-04-27 16:35:00,
2013-04-27 12:50:00,66.3,45.0,30.23,SSE,159,4.0,9.0,47,0.00,,,0.00,weatherlink.com 1.10,2013-04-27 16:50:00,
2013-04-27 13:05:00,66.3,44.0,30.22,SSE,165,5.0,11.0,44,0.00,,,0.00,weatherlink.com 1.10,2013-04-27 17:05:00,
2013-04-27 13:20:00,67.1,43.0,30.22,South,181,4.0,7.0,42,0.00,,,0.00,weatherlink.com 1.10,2013-04-27 17:20:00,
2013-04-27 13:35:00,67.5,43.0,30.21,East,80,2.0,7.0,42,0.00,,,0.00,weatherlink.com 1.10,2013-04-27 17:35:00,
2013-04-27 13:50:00,68.6,40.0,30.21,SSW,204,4.0,10.0,36,0.00,,,0.00,weatherlink.com 1.10,2013-04-27 17:50:00,
2013-04-27 14:05:00,68.7,41.0,30.21,SE,140,3.0,10.0,36,0.00,,,0.00,weatherlink.com 1.10,2013-04-27 18:05:00,
2013-04-27 14:20:00,69.1,40.0,30.20,East,91,4.0,8.0,35,0.00,,,0.00,weatherlink.com 1.10,2013-04-27 18:20:00,
2013-04-27 14:35:00,69.8,39.0,30.20,SSE,153,6.0,9.0,32,0.00,,,0.00,weatherlink.com 1.10,2013-04-27 18:35:00,
2013-04-27 14:51:00,69.6,37.0,30.19,SW,226,2.0,14.0,30,0.00,,,0.00,weatherlink.com 1.10,2013-04-27 18:51:00,
2013-04-27 15:06:00,69.6,38.0,30.19,SSW,198,2.0,12.0,31,0.00,,,0.00,weatherlink.com 1.10,2013-04-27 19:06:00,
2013-04-27 15:21:00,70.6,39.0,30.18,SW,236,2.0,9.0,32,0.00,,,0.00,weatherlink.com 1.10,2013-04-27 19:21:00,
2013-04-27 15:36:00,70.4,40.0,30.18,SSW,208,1.0,10.0,33,0.00,,,0.00,weatherlink.com 1.10,2013-04-27 19:36:00,
2013-04-27 15:51:00,71.0,40.0,30.16,SSW,208,2.0,9.0,32,0.00,,,0.00,weatherlink.com 1.10,2013-04-27 19:51:00,
2013-04-27 16:06:00,71.3,40.0,30.16,West,264,2.0,8.0,32,0.00,,,0.00,weatherlink.com 1.10,2013-04-27 20:06:00,
2013-04-27 16:21:00,71.4,38.0,30.15,South,188,1.0,8.0,30,0.00,,,0.00,weatherlink.com 1.10,2013-04-27 20:21:00,
2013-04-27 16:36:00,71.1,39.0,30.14,SW,214,1.0,13.0,31,0.00,,,0.00,weatherlink.com 1.10,2013-04-27 20:36:00,
2013-04-27 16:51:00,72.0,40.0,30.14,SSW,198,1.0,6.0,31,0.00,,,0.00,weatherlink.com 1.10,2013-04-27 20:51:00,
2013-04-27 17:06:00,72.9,40.0,30.13,SE,125,3.0,6.0,31,0.00,,,0.00,weatherlink.com 1.10,2013-04-27 21:06:00,
2013-04-27 17:21:00,72.1,38.0,30.12,South,169,2.0,5.0,29,0.00,,,0.00,weatherlink.com 1.10,2013-04-27 21:21:00,
2013-04-27 17:36:00,71.7,39.0,30.11,South,171,1.0,7.0,31,0.00,,,0.00,weatherlink.com 1.10,2013-04-27 21:36:00,
2013-04-27 17:51:00,71.8,38.0,30.11,SSE,152,6.0,11.0,29,0.00,,,0.00,weatherlink.com 1.10,2013-04-27 21:51:00,
2013-04-27 18:06:00,71.8,36.0,30.10,SE,137,5.0,11.0,27,0.00,,,0.00,weatherlink.com 1.10,2013-04-27 22:06:00,
2013-04-27 18:21:00,71.4,37.0,30.11,SE,134,9.0,12.0,29,0.00,,,0.00,weatherlink.com 1.10,2013-04-27 22:21:00,
2013-04-27 18:36:00,71.0,35.0,30.10,SSE,159,4.0,8.0,27,0.00,,,0.00,weatherlink.com 1.10,2013-04-27 22:36:00,
2013-04-27 18:51:00,70.9,37.0,30.10,SE,134,8.0,10.0,29,0.00,,,0.00,weatherlink.com 1.10,2013-04-27 22:51:00,
2013-04-27 19:06:00,70.3,36.0,30.10,SSE,155,5.0,10.0,28,0.00,,,0.00,weatherlink.com 1.10,2013-04-27 23:06:00,
2013-04-27 19:21:00,70.3,36.0,30.09,SSE,165,2.0,11.0,28,0.00,,,0.00,weatherlink.com 1.10,2013-04-27 23:21:00,
2013-04-27 19:36:00,70.2,35.0,30.09,ESE,104,5.0,7.0,27,0.00,,,0.00,weatherlink.com 1.10,2013-04-27 23:36:00,
2013-04-27 19:51:00,69.7,35.0,30.08,SSE,155,4.0,6.0,28,0.00,,,0.00,weatherlink.com 1.10,2013-04-27 23:51:00,
2013-04-27 20:06:00,69.0,35.0,30.08,SSE,163,0.0,5.0,29,0.00,,,0.00,weatherlink.com 1.10,2013-04-28 00:06:00,
2013-04-27 20:21:00,67.6,36.0,30.08,SSE,163,2.0,6.0,31,0.00,,,0.00,weatherlink.com 1.10,2013-04-28 00:21:00,
2013-04-27 20:36:00,66.1,36.0,30.08,SSE,164,4.0,8.0,33,0.00,,,0.00,weatherlink.com 1.10,2013-04-28 00:36:00,
2013-04-27 20:51:00,65.0,37.0,30.08,South,191,2.0,4.0,35,0.00,,,0.00,weatherlink.com 1.10,2013-04-28 00:51:00,
2013-04-27 21:05:00,63.9,37.0,30.08,SE,141,0.0,1.0,37,0.00,,,0.00,weatherlink.com 1.10,2013-04-28 01:05:00,
2013-04-27 21:21:00,63.0,37.0,30.08,SSE,163,0.0,2.0,38,0.00,,,0.00,weatherlink.com 1.10,2013-04-28 01:21:00,
2013-04-27 21:36:00,61.5,37.0,30.08,SSE,164,0.0,0.0,41,0.00,,,0.00,weatherlink.com 1.10,2013-04-28 01:36:00,
2013-04-27 21:50:00,59.6,38.0,30.08,SSE,165,0.0,0.0,45,0.00,,,0.00,weatherlink.com 1.10,2013-04-28 01:50:00,
2013-04-27 22:05:00,58.7,40.0,30.08,SSE,165,0.0,0.0,50,0.00,,,0.00,weatherlink.com 1.10,2013-04-28 02:05:00,
2013-04-27 22:20:00,57.8,40.0,30.07,SSE,165,0.0,0.0,52,0.00,,,0.00,weatherlink.com 1.10,2013-04-28 02:20:00,
2013-04-27 22:35:00,56.6,41.0,30.07,SSE,165,0.0,0.0,57,0.00,,,0.00,weatherlink.com 1.10,2013-04-28 02:35:00,
2013-04-27 22:51:00,56.0,42.0,30.07,SSE,165,0.0,0.0,60,0.00,,,0.00,weatherlink.com 1.10,2013-04-28 02:51:00,
2013-04-27 23:07:00,55.0,42.0,30.07,SSE,165,0.0,0.0,62,0.00,,,0.00,weatherlink.com 1.10,2013-04-28 03:07:00,
2013-04-27 23:21:00,54.0,42.0,30.07,SSE,165,0.0,0.0,63,0.00,,,0.00,weatherlink.com 1.10,2013-04-28 03:21:00,
2013-04-27 23:36:00,53.2,42.0,30.07,SSE,165,0.0,0.0,65,0.00,,,0.00,weatherlink.com 1.10,2013-04-28 03:36:00,
2013-04-27 23:51:00,52.8,42.0,30.06,SSE,165,0.0,0.0,66,0.00,,,0.00,weatherlink.com 1.10,2013-04-28 03:51:00,